sensor_id;sensor_type;location;lat;lon;timestamp;P1;durP1;ratioP1;P2;durP2;ratioP2
7150;SDS011;3617;48.836;9.172;2022-08-01T00:00:10;1.90;;;1.73;;
7150;SDS011;3617;48.836;9.172;2022-08-01T00:02:37;2.40;;;2.00;;
7150;SDS011;3617;48.836;9.172;2022-08-01T00:05:03;2.53;;;1.70;;
7150;SDS011;3617;48.836;9.172;2022-08-01T00:07:33;2.75;;;2.17;;
7150;SDS011;3617;48.836;9.172;2022-08-01T00:09:59;4.03;;;1.80;;
7150;SDS011;3617;48.836;9.172;2022-08-01T00:12:25;2.00;;;1.73;;
7150;SDS011;3617;48.836;9.172;2022-08-01T00:14:51;1.50;;;1.40;;
7150;SDS011;3617;48.836;9.172;2022-08-01T00:17:16;2.25;;;1.98;;
7150;SDS011;3617;48.836;9.172;2022-08-01T00:19:42;2.42;;;1.73;;
7150;SDS011;3617;48.836;9.172;2022-08-01T00:22:08;2.87;;;2.17;;
7150;SDS011;3617;48.836;9.172;2022-08-01T00:24:34;3.22;;;1.90;;
7150;SDS011;3617;48.836;9.172;2022-08-01T00:27:00;3.65;;;1.92;;
7150;SDS011;3617;48.836;9.172;2022-08-01T00:29:26;2.20;;;1.90;;
7150;SDS011;3617;48.836;9.172;2022-08-01T00:31:52;2.72;;;2.10;;
7150;SDS011;3617;48.836;9.172;2022-08-01T00:34:18;2.00;;;1.80;;
7150;SDS011;3617;48.836;9.172;2022-08-01T00:36:44;1.70;;;1.60;;
7150;SDS011;3617;48.836;9.172;2022-08-01T00:39:11;3.92;;;2.00;;
7150;SDS011;3617;48.836;9.172;2022-08-01T00:41:37;2.10;;;1.90;;
7150;SDS011;3617;48.836;9.172;2022-08-01T00:44:04;4.35;;;2.00;;
7150;SDS011;3617;48.836;9.172;2022-08-01T00:46:30;2.60;;;2.10;;
7150;SDS011;3617;48.836;9.172;2022-08-01T00:48:56;3.47;;;2.38;;
7150;SDS011;3617;48.836;9.172;2022-08-01T00:51:23;2.13;;;1.90;;
7150;SDS011;3617;48.836;9.172;2022-08-01T00:53:49;2.20;;;1.90;;
7150;SDS011;3617;48.836;9.172;2022-08-01T00:56:16;2.13;;;1.90;;
7150;SDS011;3617;48.836;9.172;2022-08-01T00:58:42;2.30;;;1.90;;
7150;SDS011;3617;48.836;9.172;2022-08-01T01:01:09;2.00;;;1.90;;
7150;SDS011;3617;48.836;9.172;2022-08-01T01:03:35;2.90;;;2.30;;
7150;SDS011;3617;48.836;9.172;2022-08-01T01:08:32;2.47;;;2.28;;
7150;SDS011;3617;48.836;9.172;2022-08-01T01:11:03;3.10;;;2.17;;
7150;SDS011;3617;48.836;9.172;2022-08-01T01:13:37;3.23;;;2.17;;
7150;SDS011;3617;48.836;9.172;2022-08-01T01:16:05;2.60;;;2.20;;
7150;SDS011;3617;48.836;9.172;2022-08-01T01:18:38;2.57;;;2.00;;
7150;SDS011;3617;48.836;9.172;2022-08-01T01:21:13;2.35;;;2.15;;
7150;SDS011;3617;48.836;9.172;2022-08-01T01:23:44;2.38;;;1.88;;
7150;SDS011;3617;48.836;9.172;2022-08-01T01:26:23;2.85;;;1.98;;
7150;SDS011;3617;48.836;9.172;2022-08-01T01:29:02;2.20;;;2.00;;
7150;SDS011;3617;48.836;9.172;2022-08-01T01:31:29;2.53;;;2.00;;
7150;SDS011;3617;48.836;9.172;2022-08-01T01:33:57;2.40;;;2.10;;
7150;SDS011;3617;48.836;9.172;2022-08-01T01:36:24;2.13;;;1.93;;
7150;SDS011;3617;48.836;9.172;2022-08-01T01:38:51;2.47;;;1.83;;
7150;SDS011;3617;48.836;9.172;2022-08-01T01:41:18;2.20;;;2.00;;
7150;SDS011;3617;48.836;9.172;2022-08-01T01:43:46;2.73;;;2.17;;
7150;SDS011;3617;48.836;9.172;2022-08-01T01:46:12;2.20;;;2.00;;
7150;SDS011;3617;48.836;9.172;2022-08-01T01:48:38;4.27;;;2.30;;
7150;SDS011;3617;48.836;9.172;2022-08-01T01:51:05;2.75;;;1.90;;
7150;SDS011;3617;48.836;9.172;2022-08-01T01:53:33;2.40;;;2.00;;
7150;SDS011;3617;48.836;9.172;2022-08-01T01:55:59;3.00;;;2.20;;
7150;SDS011;3617;48.836;9.172;2022-08-01T01:58:26;5.40;;;2.10;;
7150;SDS011;3617;48.836;9.172;2022-08-01T02:00:53;3.73;;;2.20;;
7150;SDS011;3617;48.836;9.172;2022-08-01T02:03:20;2.17;;;1.97;;
7150;SDS011;3617;48.836;9.172;2022-08-01T02:05:47;3.03;;;2.10;;
7150;SDS011;3617;48.836;9.172;2022-08-01T02:08:14;2.23;;;2.03;;
7150;SDS011;3617;48.836;9.172;2022-08-01T02:10:41;2.43;;;2.00;;
7150;SDS011;3617;48.836;9.172;2022-08-01T02:13:28;2.80;;;2.50;;
7150;SDS011;3617;48.836;9.172;2022-08-01T02:15:54;3.70;;;2.17;;
7150;SDS011;3617;48.836;9.172;2022-08-01T02:18:20;3.00;;;2.10;;
7150;SDS011;3617;48.836;9.172;2022-08-01T02:20:46;2.80;;;2.20;;
7150;SDS011;3617;48.836;9.172;2022-08-01T02:23:13;2.73;;;2.03;;
7150;SDS011;3617;48.836;9.172;2022-08-01T02:25:43;3.17;;;2.50;;
7150;SDS011;3617;48.836;9.172;2022-08-01T02:30:46;2.70;;;2.20;;
7150;SDS011;3617;48.836;9.172;2022-08-01T02:33:20;3.70;;;2.10;;
7150;SDS011;3617;48.836;9.172;2022-08-01T02:35:52;3.77;;;2.90;;
7150;SDS011;3617;48.836;9.172;2022-08-01T02:38:20;3.13;;;2.53;;
7150;SDS011;3617;48.836;9.172;2022-08-01T02:40:47;2.50;;;2.30;;
7150;SDS011;3617;48.836;9.172;2022-08-01T02:43:17;2.33;;;2.00;;
7150;SDS011;3617;48.836;9.172;2022-08-01T02:45:45;2.60;;;2.20;;
7150;SDS011;3617;48.836;9.172;2022-08-01T02:48:12;2.53;;;2.23;;
7150;SDS011;3617;48.836;9.172;2022-08-01T02:50:39;2.80;;;2.30;;
7150;SDS011;3617;48.836;9.172;2022-08-01T02:53:07;2.90;;;2.20;;
7150;SDS011;3617;48.836;9.172;2022-08-01T02:55:35;2.33;;;2.00;;
7150;SDS011;3617;48.836;9.172;2022-08-01T02:58:02;2.77;;;2.50;;
7150;SDS011;3617;48.836;9.172;2022-08-01T03:00:29;4.60;;;2.37;;
7150;SDS011;3617;48.836;9.172;2022-08-01T03:02:55;2.70;;;2.10;;
7150;SDS011;3617;48.836;9.172;2022-08-01T03:05:22;2.70;;;2.30;;
7150;SDS011;3617;48.836;9.172;2022-08-01T03:07:49;2.30;;;2.10;;
7150;SDS011;3617;48.836;9.172;2022-08-01T03:10:17;3.00;;;2.30;;
7150;SDS011;3617;48.836;9.172;2022-08-01T03:12:43;2.87;;;2.10;;
7150;SDS011;3617;48.836;9.172;2022-08-01T03:15:10;4.73;;;2.47;;
7150;SDS011;3617;48.836;9.172;2022-08-01T03:17:37;2.93;;;2.33;;
7150;SDS011;3617;48.836;9.172;2022-08-01T03:20:06;3.27;;;2.27;;
7150;SDS011;3617;48.836;9.172;2022-08-01T03:22:33;3.40;;;2.27;;
7150;SDS011;3617;48.836;9.172;2022-08-01T03:25:00;2.30;;;2.00;;
7150;SDS011;3617;48.836;9.172;2022-08-01T03:27:28;2.77;;;2.27;;
7150;SDS011;3617;48.836;9.172;2022-08-01T03:29:55;4.33;;;2.43;;
7150;SDS011;3617;48.836;9.172;2022-08-01T03:32:22;3.87;;;2.27;;
7150;SDS011;3617;48.836;9.172;2022-08-01T03:34:48;3.47;;;2.60;;
7150;SDS011;3617;48.836;9.172;2022-08-01T03:37:17;2.70;;;2.10;;
7150;SDS011;3617;48.836;9.172;2022-08-01T03:39:50;2.70;;;2.20;;
7150;SDS011;3617;48.836;9.172;2022-08-01T03:42:18;2.63;;;2.27;;
7150;SDS011;3617;48.836;9.172;2022-08-01T03:44:47;4.70;;;2.30;;
7150;SDS011;3617;48.836;9.172;2022-08-01T03:47:13;2.33;;;1.93;;
7150;SDS011;3617;48.836;9.172;2022-08-01T03:49:42;3.30;;;2.40;;
7150;SDS011;3617;48.836;9.172;2022-08-01T03:52:09;4.17;;;2.17;;
7150;SDS011;3617;48.836;9.172;2022-08-01T03:54:38;2.83;;;2.50;;
7150;SDS011;3617;48.836;9.172;2022-08-01T03:57:05;4.00;;;2.20;;
7150;SDS011;3617;48.836;9.172;2022-08-01T03:59:32;3.53;;;2.57;;
7150;SDS011;3617;48.836;9.172;2022-08-01T04:02:01;2.83;;;2.27;;
7150;SDS011;3617;48.836;9.172;2022-08-01T04:04:28;4.17;;;2.57;;
7150;SDS011;3617;48.836;9.172;2022-08-01T04:06:54;4.50;;;2.53;;
7150;SDS011;3617;48.836;9.172;2022-08-01T04:09:20;2.73;;;2.47;;
7150;SDS011;3617;48.836;9.172;2022-08-01T04:11:47;2.40;;;2.20;;
7150;SDS011;3617;48.836;9.172;2022-08-01T04:14:13;3.93;;;2.67;;
7150;SDS011;3617;48.836;9.172;2022-08-01T04:16:39;2.70;;;2.03;;
7150;SDS011;3617;48.836;9.172;2022-08-01T04:19:05;3.00;;;2.50;;
7150;SDS011;3617;48.836;9.172;2022-08-01T04:21:32;2.97;;;2.33;;
7150;SDS011;3617;48.836;9.172;2022-08-01T04:24:01;4.27;;;2.37;;
7150;SDS011;3617;48.836;9.172;2022-08-01T04:26:29;2.37;;;2.10;;
7150;SDS011;3617;48.836;9.172;2022-08-01T04:28:58;3.33;;;2.23;;
7150;SDS011;3617;48.836;9.172;2022-08-01T04:31:26;3.50;;;2.03;;
7150;SDS011;3617;48.836;9.172;2022-08-01T04:33:53;2.33;;;2.13;;
7150;SDS011;3617;48.836;9.172;2022-08-01T04:36:20;2.50;;;2.00;;
7150;SDS011;3617;48.836;9.172;2022-08-01T04:38:48;3.13;;;2.23;;
7150;SDS011;3617;48.836;9.172;2022-08-01T04:41:15;2.10;;;1.90;;
7150;SDS011;3617;48.836;9.172;2022-08-01T04:43:42;3.77;;;1.93;;
7150;SDS011;3617;48.836;9.172;2022-08-01T04:46:08;2.40;;;1.80;;
7150;SDS011;3617;48.836;9.172;2022-08-01T04:48:36;2.13;;;1.83;;
7150;SDS011;3617;48.836;9.172;2022-08-01T04:51:02;2.67;;;1.90;;
7150;SDS011;3617;48.836;9.172;2022-08-01T04:53:29;2.50;;;2.30;;
7150;SDS011;3617;48.836;9.172;2022-08-01T04:55:57;1.90;;;1.70;;
7150;SDS011;3617;48.836;9.172;2022-08-01T04:58:23;2.63;;;2.15;;
7150;SDS011;3617;48.836;9.172;2022-08-01T05:00:49;7.68;;;2.10;;
7150;SDS011;3617;48.836;9.172;2022-08-01T05:03:15;2.00;;;1.80;;
7150;SDS011;3617;48.836;9.172;2022-08-01T05:05:41;2.30;;;1.90;;
7150;SDS011;3617;48.836;9.172;2022-08-01T05:08:07;4.85;;;1.85;;
7150;SDS011;3617;48.836;9.172;2022-08-01T05:10:33;3.00;;;1.80;;
7150;SDS011;3617;48.836;9.172;2022-08-01T05:12:59;2.08;;;1.77;;
7150;SDS011;3617;48.836;9.172;2022-08-01T05:15:25;2.55;;;1.55;;
7150;SDS011;3617;48.836;9.172;2022-08-01T05:17:51;1.98;;;1.77;;
7150;SDS011;3617;48.836;9.172;2022-08-01T05:20:17;7.88;;;1.70;;
7150;SDS011;3617;48.836;9.172;2022-08-01T05:22:43;5.05;;;1.92;;
7150;SDS011;3617;48.836;9.172;2022-08-01T05:25:09;2.10;;;1.80;;
7150;SDS011;3617;48.836;9.172;2022-08-01T05:27:36;2.03;;;1.63;;
7150;SDS011;3617;48.836;9.172;2022-08-01T05:30:05;2.75;;;1.48;;
7150;SDS011;3617;48.836;9.172;2022-08-01T05:32:31;4.43;;;1.80;;
7150;SDS011;3617;48.836;9.172;2022-08-01T05:34:57;2.22;;;1.85;;
7150;SDS011;3617;48.836;9.172;2022-08-01T05:37:24;1.63;;;1.52;;
7150;SDS011;3617;48.836;9.172;2022-08-01T05:39:50;1.75;;;1.50;;
7150;SDS011;3617;48.836;9.172;2022-08-01T05:42:16;1.80;;;1.40;;
7150;SDS011;3617;48.836;9.172;2022-08-01T05:44:42;3.03;;;1.50;;
7150;SDS011;3617;48.836;9.172;2022-08-01T05:47:08;2.28;;;1.50;;
7150;SDS011;3617;48.836;9.172;2022-08-01T05:49:34;2.20;;;1.42;;
7150;SDS011;3617;48.836;9.172;2022-08-01T05:52:00;1.70;;;1.40;;
7150;SDS011;3617;48.836;9.172;2022-08-01T05:54:26;3.10;;;1.48;;
7150;SDS011;3617;48.836;9.172;2022-08-01T05:56:52;2.70;;;1.40;;
7150;SDS011;3617;48.836;9.172;2022-08-01T05:59:19;1.55;;;1.38;;
7150;SDS011;3617;48.836;9.172;2022-08-01T06:01:45;1.48;;;1.30;;
7150;SDS011;3617;48.836;9.172;2022-08-01T06:04:11;2.15;;;1.25;;
7150;SDS011;3617;48.836;9.172;2022-08-01T06:06:37;1.35;;;1.10;;
7150;SDS011;3617;48.836;9.172;2022-08-01T06:09:03;1.42;;;1.23;;
7150;SDS011;3617;48.836;9.172;2022-08-01T06:11:29;2.25;;;1.40;;
7150;SDS011;3617;48.836;9.172;2022-08-01T06:13:55;1.20;;;1.08;;
7150;SDS011;3617;48.836;9.172;2022-08-01T06:16:21;1.33;;;1.10;;
7150;SDS011;3617;48.836;9.172;2022-08-01T06:18:47;1.30;;;1.17;;
7150;SDS011;3617;48.836;9.172;2022-08-01T06:21:13;1.40;;;1.30;;
7150;SDS011;3617;48.836;9.172;2022-08-01T06:23:40;1.55;;;1.38;;
7150;SDS011;3617;48.836;9.172;2022-08-01T06:26:07;1.15;;;1.05;;
7150;SDS011;3617;48.836;9.172;2022-08-01T06:28:33;3.92;;;1.50;;
7150;SDS011;3617;48.836;9.172;2022-08-01T06:30:59;2.08;;;1.20;;
7150;SDS011;3617;48.836;9.172;2022-08-01T06:33:26;1.30;;;1.20;;
7150;SDS011;3617;48.836;9.172;2022-08-01T06:35:52;1.92;;;1.15;;
7150;SDS011;3617;48.836;9.172;2022-08-01T06:38:18;2.08;;;1.27;;
7150;SDS011;3617;48.836;9.172;2022-08-01T06:40:44;1.50;;;1.10;;
7150;SDS011;3617;48.836;9.172;2022-08-01T06:43:10;1.88;;;1.10;;
7150;SDS011;3617;48.836;9.172;2022-08-01T06:45:36;1.13;;;1.02;;
7150;SDS011;3617;48.836;9.172;2022-08-01T06:48:03;1.15;;;0.90;;
7150;SDS011;3617;48.836;9.172;2022-08-01T06:50:29;1.90;;;1.02;;
7150;SDS011;3617;48.836;9.172;2022-08-01T06:52:56;1.10;;;1.00;;
7150;SDS011;3617;48.836;9.172;2022-08-01T06:55:22;1.10;;;1.00;;
7150;SDS011;3617;48.836;9.172;2022-08-01T06:57:49;2.67;;;1.20;;
7150;SDS011;3617;48.836;9.172;2022-08-01T07:00:15;2.30;;;1.30;;
7150;SDS011;3617;48.836;9.172;2022-08-01T07:02:43;1.40;;;1.30;;
7150;SDS011;3617;48.836;9.172;2022-08-01T07:05:09;1.10;;;1.00;;
7150;SDS011;3617;48.836;9.172;2022-08-01T07:07:36;1.33;;;1.10;;
7150;SDS011;3617;48.836;9.172;2022-08-01T07:10:02;1.88;;;1.25;;
7150;SDS011;3617;48.836;9.172;2022-08-01T07:12:28;3.28;;;1.20;;
7150;SDS011;3617;48.836;9.172;2022-08-01T07:14:54;3.33;;;1.20;;
7150;SDS011;3617;48.836;9.172;2022-08-01T07:17:20;3.85;;;1.10;;
7150;SDS011;3617;48.836;9.172;2022-08-01T07:19:47;1.75;;;1.23;;
7150;SDS011;3617;48.836;9.172;2022-08-01T07:22:13;1.08;;;0.95;;
7150;SDS011;3617;48.836;9.172;2022-08-01T07:24:39;2.47;;;1.10;;
7150;SDS011;3617;48.836;9.172;2022-08-01T07:27:06;1.95;;;1.00;;
7150;SDS011;3617;48.836;9.172;2022-08-01T07:29:32;1.17;;;1.05;;
7150;SDS011;3617;48.836;9.172;2022-08-01T07:31:58;1.23;;;1.10;;
7150;SDS011;3617;48.836;9.172;2022-08-01T07:34:25;1.77;;;1.20;;
7150;SDS011;3617;48.836;9.172;2022-08-01T07:36:51;0.95;;;0.95;;
7150;SDS011;3617;48.836;9.172;2022-08-01T07:39:17;1.20;;;1.05;;
7150;SDS011;3617;48.836;9.172;2022-08-01T07:41:43;1.40;;;1.10;;
7150;SDS011;3617;48.836;9.172;2022-08-01T07:44:10;1.42;;;1.10;;
7150;SDS011;3617;48.836;9.172;2022-08-01T07:46:36;1.65;;;1.27;;
7150;SDS011;3617;48.836;9.172;2022-08-01T07:49:02;3.13;;;1.40;;
7150;SDS011;3617;48.836;9.172;2022-08-01T07:51:28;1.58;;;1.15;;
7150;SDS011;3617;48.836;9.172;2022-08-01T07:53:54;1.38;;;1.15;;
7150;SDS011;3617;48.836;9.172;2022-08-01T07:56:20;2.00;;;1.13;;
7150;SDS011;3617;48.836;9.172;2022-08-01T07:58:48;1.75;;;1.20;;
7150;SDS011;3617;48.836;9.172;2022-08-01T08:01:14;1.38;;;1.27;;
7150;SDS011;3617;48.836;9.172;2022-08-01T08:03:41;1.33;;;1.15;;
7150;SDS011;3617;48.836;9.172;2022-08-01T08:06:07;1.70;;;1.38;;
7150;SDS011;3617;48.836;9.172;2022-08-01T08:08:33;1.45;;;1.30;;
7150;SDS011;3617;48.836;9.172;2022-08-01T08:10:59;3.33;;;1.33;;
7150;SDS011;3617;48.836;9.172;2022-08-01T08:13:25;1.83;;;1.17;;
7150;SDS011;3617;48.836;9.172;2022-08-01T08:15:51;1.80;;;1.10;;
7150;SDS011;3617;48.836;9.172;2022-08-01T08:18:17;1.90;;;1.20;;
7150;SDS011;3617;48.836;9.172;2022-08-01T08:20:43;3.42;;;1.25;;
7150;SDS011;3617;48.836;9.172;2022-08-01T08:23:10;1.55;;;1.20;;
7150;SDS011;3617;48.836;9.172;2022-08-01T08:25:54;1.40;;;1.15;;
7150;SDS011;3617;48.836;9.172;2022-08-01T08:28:20;2.45;;;1.40;;
7150;SDS011;3617;48.836;9.172;2022-08-01T08:30:46;1.30;;;1.20;;
7150;SDS011;3617;48.836;9.172;2022-08-01T08:33:12;1.55;;;1.10;;
7150;SDS011;3617;48.836;9.172;2022-08-01T08:35:39;1.20;;;1.10;;
7150;SDS011;3617;48.836;9.172;2022-08-01T08:38:08;1.63;;;1.27;;
7150;SDS011;3617;48.836;9.172;2022-08-01T08:40:35;2.25;;;1.35;;
7150;SDS011;3617;48.836;9.172;2022-08-01T08:43:03;2.80;;;1.42;;
7150;SDS011;3617;48.836;9.172;2022-08-01T08:45:29;2.33;;;1.70;;
7150;SDS011;3617;48.836;9.172;2022-08-01T08:47:55;1.60;;;1.40;;
7150;SDS011;3617;48.836;9.172;2022-08-01T08:50:22;1.60;;;1.50;;
7150;SDS011;3617;48.836;9.172;2022-08-01T08:52:49;2.10;;;1.48;;
7150;SDS011;3617;48.836;9.172;2022-08-01T08:55:15;2.42;;;1.60;;
7150;SDS011;3617;48.836;9.172;2022-08-01T08:57:43;2.08;;;1.60;;
7150;SDS011;3617;48.836;9.172;2022-08-01T09:00:09;1.75;;;1.50;;
7150;SDS011;3617;48.836;9.172;2022-08-01T09:02:39;2.10;;;1.50;;
7150;SDS011;3617;48.836;9.172;2022-08-01T09:05:05;2.47;;;1.50;;
7150;SDS011;3617;48.836;9.172;2022-08-01T09:07:32;2.75;;;1.40;;
7150;SDS011;3617;48.836;9.172;2022-08-01T09:09:58;2.30;;;1.60;;
7150;SDS011;3617;48.836;9.172;2022-08-01T09:12:24;2.90;;;1.52;;
7150;SDS011;3617;48.836;9.172;2022-08-01T09:14:50;2.15;;;1.45;;
7150;SDS011;3617;48.836;9.172;2022-08-01T09:17:18;3.05;;;1.60;;
7150;SDS011;3617;48.836;9.172;2022-08-01T09:19:49;2.38;;;1.67;;
7150;SDS011;3617;48.836;9.172;2022-08-01T09:22:17;2.00;;;1.65;;
7150;SDS011;3617;48.836;9.172;2022-08-01T09:27:44;2.08;;;1.73;;
7150;SDS011;3617;48.836;9.172;2022-08-01T09:30:11;2.15;;;1.70;;
7150;SDS011;3617;48.836;9.172;2022-08-01T09:32:57;2.33;;;1.90;;
7150;SDS011;3617;48.836;9.172;2022-08-01T09:35:27;5.05;;;2.35;;
7150;SDS011;3617;48.836;9.172;2022-08-01T09:40:45;3.28;;;2.60;;
7150;SDS011;3617;48.836;9.172;2022-08-01T09:43:12;4.88;;;2.55;;
7150;SDS011;3617;48.836;9.172;2022-08-01T09:45:38;3.65;;;2.47;;
7150;SDS011;3617;48.836;9.172;2022-08-01T09:48:07;3.65;;;2.35;;
7150;SDS011;3617;48.836;9.172;2022-08-01T09:50:40;2.60;;;2.35;;
7150;SDS011;3617;48.836;9.172;2022-08-01T09:53:07;6.35;;;2.78;;
7150;SDS011;3617;48.836;9.172;2022-08-01T09:55:33;6.13;;;2.75;;
7150;SDS011;3617;48.836;9.172;2022-08-01T09:57:59;2.80;;;2.60;;
7150;SDS011;3617;48.836;9.172;2022-08-01T10:00:26;3.83;;;2.70;;
7150;SDS011;3617;48.836;9.172;2022-08-01T10:02:52;5.10;;;2.85;;
7150;SDS011;3617;48.836;9.172;2022-08-01T10:05:18;3.70;;;2.88;;
7150;SDS011;3617;48.836;9.172;2022-08-01T10:08:03;4.00;;;3.03;;
7150;SDS011;3617;48.836;9.172;2022-08-01T10:10:30;2.50;;;2.30;;
7150;SDS011;3617;48.836;9.172;2022-08-01T10:12:59;3.05;;;2.42;;
7150;SDS011;3617;48.836;9.172;2022-08-01T10:15:26;3.10;;;2.10;;
7150;SDS011;3617;48.836;9.172;2022-08-01T10:17:53;2.50;;;2.10;;
7150;SDS011;3617;48.836;9.172;2022-08-01T10:20:19;2.25;;;2.00;;
7150;SDS011;3617;48.836;9.172;2022-08-01T10:22:46;4.25;;;1.88;;
7150;SDS011;3617;48.836;9.172;2022-08-01T10:25:12;4.05;;;2.15;;
7150;SDS011;3617;48.836;9.172;2022-08-01T10:27:42;2.13;;;1.52;;
7150;SDS011;3617;48.836;9.172;2022-08-01T10:30:10;2.10;;;1.63;;
7150;SDS011;3617;48.836;9.172;2022-08-01T10:32:37;2.75;;;1.88;;
7150;SDS011;3617;48.836;9.172;2022-08-01T10:35:04;2.50;;;2.03;;
7150;SDS011;3617;48.836;9.172;2022-08-01T10:37:30;2.83;;;1.92;;
7150;SDS011;3617;48.836;9.172;2022-08-01T10:39:56;2.88;;;1.90;;
7150;SDS011;3617;48.836;9.172;2022-08-01T10:42:23;3.28;;;1.90;;
7150;SDS011;3617;48.836;9.172;2022-08-01T10:44:49;1.98;;;1.70;;
7150;SDS011;3617;48.836;9.172;2022-08-01T10:47:17;2.25;;;1.75;;
7150;SDS011;3617;48.836;9.172;2022-08-01T10:52:28;1.88;;;1.60;;
7150;SDS011;3617;48.836;9.172;2022-08-01T10:55:03;2.45;;;1.80;;
7150;SDS011;3617;48.836;9.172;2022-08-01T10:57:42;1.92;;;1.73;;
7150;SDS011;3617;48.836;9.172;2022-08-01T11:00:08;1.95;;;1.85;;
7150;SDS011;3617;48.836;9.172;2022-08-01T11:02:35;2.55;;;2.08;;
7150;SDS011;3617;48.836;9.172;2022-08-01T11:05:09;3.33;;;2.35;;
7150;SDS011;3617;48.836;9.172;2022-08-01T11:07:39;2.15;;;1.95;;
7150;SDS011;3617;48.836;9.172;2022-08-01T11:10:09;3.05;;;2.05;;
7150;SDS011;3617;48.836;9.172;2022-08-01T11:12:38;2.60;;;2.40;;
7150;SDS011;3617;48.836;9.172;2022-08-01T11:17:35;3.50;;;1.90;;
7150;SDS011;3617;48.836;9.172;2022-08-01T11:20:12;2.97;;;1.92;;
7150;SDS011;3617;48.836;9.172;2022-08-01T11:25:23;2.03;;;1.90;;
7150;SDS011;3617;48.836;9.172;2022-08-01T11:27:50;2.22;;;2.03;;
7150;SDS011;3617;48.836;9.172;2022-08-01T11:30:35;2.47;;;2.15;;
7150;SDS011;3617;48.836;9.172;2022-08-01T11:33:01;4.25;;;2.17;;
7150;SDS011;3617;48.836;9.172;2022-08-01T11:35:27;4.15;;;2.20;;
7150;SDS011;3617;48.836;9.172;2022-08-01T11:37:54;2.10;;;1.90;;
7150;SDS011;3617;48.836;9.172;2022-08-01T11:40:22;3.00;;;2.17;;
7150;SDS011;3617;48.836;9.172;2022-08-01T11:42:49;1.88;;;1.73;;
7150;SDS011;3617;48.836;9.172;2022-08-01T11:45:15;2.78;;;1.83;;
7150;SDS011;3617;48.836;9.172;2022-08-01T11:50:07;1.88;;;1.65;;
7150;SDS011;3617;48.836;9.172;2022-08-01T11:52:57;4.93;;;1.85;;
7150;SDS011;3617;48.836;9.172;2022-08-01T11:55:23;2.20;;;2.00;;
7150;SDS011;3617;48.836;9.172;2022-08-01T11:57:49;2.30;;;2.10;;
7150;SDS011;3617;48.836;9.172;2022-08-01T12:00:16;4.28;;;2.28;;
7150;SDS011;3617;48.836;9.172;2022-08-01T12:02:43;2.97;;;2.22;;
7150;SDS011;3617;48.836;9.172;2022-08-01T12:07:35;2.42;;;2.22;;
7150;SDS011;3617;48.836;9.172;2022-08-01T12:10:20;3.67;;;2.05;;
7150;SDS011;3617;48.836;9.172;2022-08-01T12:12:51;2.53;;;2.15;;
7150;SDS011;3617;48.836;9.172;2022-08-01T12:15:18;2.65;;;1.80;;
7150;SDS011;3617;48.836;9.172;2022-08-01T12:17:46;2.22;;;2.03;;
7150;SDS011;3617;48.836;9.172;2022-08-01T12:20:13;2.35;;;1.90;;
7150;SDS011;3617;48.836;9.172;2022-08-01T12:22:40;1.90;;;1.70;;
7150;SDS011;3617;48.836;9.172;2022-08-01T12:27:33;2.78;;;2.00;;
7150;SDS011;3617;48.836;9.172;2022-08-01T12:29:59;3.58;;;1.90;;
7150;SDS011;3617;48.836;9.172;2022-08-01T12:32:27;2.53;;;2.33;;
7150;SDS011;3617;48.836;9.172;2022-08-01T12:34:54;1.90;;;1.70;;
7150;SDS011;3617;48.836;9.172;2022-08-01T12:37:21;2.33;;;1.95;;
7150;SDS011;3617;48.836;9.172;2022-08-01T12:39:47;2.60;;;2.08;;
7150;SDS011;3617;48.836;9.172;2022-08-01T12:42:13;2.00;;;1.80;;
7150;SDS011;3617;48.836;9.172;2022-08-01T12:44:39;4.25;;;1.90;;
7150;SDS011;3617;48.836;9.172;2022-08-01T12:47:06;2.55;;;2.08;;
7150;SDS011;3617;48.836;9.172;2022-08-01T12:49:33;3.67;;;2.10;;
7150;SDS011;3617;48.836;9.172;2022-08-01T12:52:01;2.03;;;1.80;;
7150;SDS011;3617;48.836;9.172;2022-08-01T12:54:27;2.13;;;1.70;;
7150;SDS011;3617;48.836;9.172;2022-08-01T12:56:53;3.00;;;1.70;;
7150;SDS011;3617;48.836;9.172;2022-08-01T12:59:27;5.25;;;1.52;;
7150;SDS011;3617;48.836;9.172;2022-08-01T13:01:54;3.85;;;1.60;;
7150;SDS011;3617;48.836;9.172;2022-08-01T13:04:21;2.45;;;1.90;;
7150;SDS011;3617;48.836;9.172;2022-08-01T13:06:47;4.18;;;2.10;;
7150;SDS011;3617;48.836;9.172;2022-08-01T13:09:14;2.17;;;1.98;;
7150;SDS011;3617;48.836;9.172;2022-08-01T13:11:40;2.90;;;1.95;;
7150;SDS011;3617;48.836;9.172;2022-08-01T13:14:06;2.08;;;1.80;;
7150;SDS011;3617;48.836;9.172;2022-08-01T13:16:33;3.45;;;1.90;;
7150;SDS011;3617;48.836;9.172;2022-08-01T13:19:10;2.42;;;1.70;;
7150;SDS011;3617;48.836;9.172;2022-08-01T13:21:36;1.77;;;1.67;;
7150;SDS011;3617;48.836;9.172;2022-08-01T13:24:06;2.05;;;1.70;;
7150;SDS011;3617;48.836;9.172;2022-08-01T13:29:06;2.97;;;1.55;;
7150;SDS011;3617;48.836;9.172;2022-08-01T13:31:33;1.65;;;1.27;;
7150;SDS011;3617;48.836;9.172;2022-08-01T13:33:59;2.40;;;1.55;;
7150;SDS011;3617;48.836;9.172;2022-08-01T13:36:25;1.88;;;1.40;;
7150;SDS011;3617;48.836;9.172;2022-08-01T13:38:53;1.60;;;1.50;;
7150;SDS011;3617;48.836;9.172;2022-08-01T13:41:38;1.40;;;1.30;;
7150;SDS011;3617;48.836;9.172;2022-08-01T13:44:04;1.50;;;1.30;;
7150;SDS011;3617;48.836;9.172;2022-08-01T13:46:30;2.28;;;1.50;;
7150;SDS011;3617;48.836;9.172;2022-08-01T13:48:56;2.83;;;1.65;;
7150;SDS011;3617;48.836;9.172;2022-08-01T13:51:22;2.33;;;1.60;;
7150;SDS011;3617;48.836;9.172;2022-08-01T13:53:48;1.52;;;1.40;;
7150;SDS011;3617;48.836;9.172;2022-08-01T13:56:14;1.70;;;1.60;;
7150;SDS011;3617;48.836;9.172;2022-08-01T13:58:42;3.00;;;1.70;;
7150;SDS011;3617;48.836;9.172;2022-08-01T14:01:08;1.80;;;1.40;;
7150;SDS011;3617;48.836;9.172;2022-08-01T14:03:34;1.90;;;1.70;;
7150;SDS011;3617;48.836;9.172;2022-08-01T14:06:00;1.65;;;1.55;;
7150;SDS011;3617;48.836;9.172;2022-08-01T14:08:27;2.00;;;1.60;;
7150;SDS011;3617;48.836;9.172;2022-08-01T14:10:53;1.73;;;1.40;;
7150;SDS011;3617;48.836;9.172;2022-08-01T14:13:22;1.40;;;1.20;;
7150;SDS011;3617;48.836;9.172;2022-08-01T14:15:48;1.50;;;1.40;;
7150;SDS011;3617;48.836;9.172;2022-08-01T14:18:15;4.05;;;1.60;;
7150;SDS011;3617;48.836;9.172;2022-08-01T14:20:41;2.13;;;1.65;;
7150;SDS011;3617;48.836;9.172;2022-08-01T14:23:07;1.90;;;1.70;;
7150;SDS011;3617;48.836;9.172;2022-08-01T14:25:33;1.92;;;1.45;;
7150;SDS011;3617;48.836;9.172;2022-08-01T14:27:59;2.97;;;1.58;;
7150;SDS011;3617;48.836;9.172;2022-08-01T14:30:25;4.97;;;1.83;;
7150;SDS011;3617;48.836;9.172;2022-08-01T14:32:51;2.97;;;1.58;;
7150;SDS011;3617;48.836;9.172;2022-08-01T14:35:17;2.15;;;1.50;;
7150;SDS011;3617;48.836;9.172;2022-08-01T14:37:43;2.58;;;1.60;;
7150;SDS011;3617;48.836;9.172;2022-08-01T14:40:09;1.75;;;1.48;;
7150;SDS011;3617;48.836;9.172;2022-08-01T14:42:36;2.47;;;1.77;;
7150;SDS011;3617;48.836;9.172;2022-08-01T14:45:02;1.98;;;1.60;;
7150;SDS011;3617;48.836;9.172;2022-08-01T14:47:29;2.05;;;1.58;;
7150;SDS011;3617;48.836;9.172;2022-08-01T14:49:55;3.53;;;1.80;;
7150;SDS011;3617;48.836;9.172;2022-08-01T14:52:21;2.03;;;1.75;;
7150;SDS011;3617;48.836;9.172;2022-08-01T14:54:47;4.40;;;1.60;;
7150;SDS011;3617;48.836;9.172;2022-08-01T14:57:13;1.48;;;1.33;;
7150;SDS011;3617;48.836;9.172;2022-08-01T14:59:42;1.40;;;1.30;;
7150;SDS011;3617;48.836;9.172;2022-08-01T15:02:08;2.58;;;1.80;;
7150;SDS011;3617;48.836;9.172;2022-08-01T15:04:36;1.63;;;1.45;;
7150;SDS011;3617;48.836;9.172;2022-08-01T15:07:02;3.72;;;1.60;;
7150;SDS011;3617;48.836;9.172;2022-08-01T15:09:28;1.30;;;1.20;;
7150;SDS011;3617;48.836;9.172;2022-08-01T15:11:54;1.65;;;1.35;;
7150;SDS011;3617;48.836;9.172;2022-08-01T15:14:20;1.67;;;1.38;;
7150;SDS011;3617;48.836;9.172;2022-08-01T15:17:05;1.60;;;1.50;;
7150;SDS011;3617;48.836;9.172;2022-08-01T15:19:32;1.88;;;1.60;;
7150;SDS011;3617;48.836;9.172;2022-08-01T15:21:58;1.83;;;1.30;;
7150;SDS011;3617;48.836;9.172;2022-08-01T15:24:24;2.33;;;1.40;;
7150;SDS011;3617;48.836;9.172;2022-08-01T15:26:50;1.40;;;1.30;;
7150;SDS011;3617;48.836;9.172;2022-08-01T15:29:16;4.18;;;1.15;;
7150;SDS011;3617;48.836;9.172;2022-08-01T15:31:42;1.55;;;1.45;;
7150;SDS011;3617;48.836;9.172;2022-08-01T15:34:08;2.10;;;1.48;;
7150;SDS011;3617;48.836;9.172;2022-08-01T15:36:34;1.20;;;1.10;;
7150;SDS011;3617;48.836;9.172;2022-08-01T15:39:00;1.50;;;1.20;;
7150;SDS011;3617;48.836;9.172;2022-08-01T15:41:26;2.45;;;1.40;;
7150;SDS011;3617;48.836;9.172;2022-08-01T15:43:52;1.92;;;1.38;;